sensor_id;sensor_type;location;lat;lon;timestamp;P1;durP1;ratioP1;P2;durP2;ratioP2
57107;SDS011;42987;52.916;6.542;2022-12-18T00:02:00;138.10;;;69.37;;
57107;SDS011;42987;52.916;6.542;2022-12-18T00:04:26;160.37;;;75.20;;
57107;SDS011;42987;52.916;6.542;2022-12-18T00:06:52;162.60;;;74.33;;
57107;SDS011;42987;52.916;6.542;2022-12-18T00:09:21;171.53;;;74.70;;
57107;SDS011;42987;52.916;6.542;2022-12-18T00:11:47;177.23;;;75.87;;
57107;SDS011;42987;52.916;6.542;2022-12-18T00:14:13;163.63;;;76.53;;
57107;SDS011;42987;52.916;6.542;2022-12-18T00:16:40;171.80;;;76.37;;
57107;SDS011;42987;52.916;6.542;2022-12-18T00:19:09;181.30;;;79.13;;
57107;SDS011;42987;52.916;6.542;2022-12-18T00:21:45;188.53;;;81.80;;
57107;SDS011;42987;52.916;6.542;2022-12-18T00:24:11;173.20;;;79.17;;
57107;SDS011;42987;52.916;6.542;2022-12-18T00:26:37;191.53;;;81.00;;
57107;SDS011;42987;52.916;6.542;2022-12-18T00:29:10;164.80;;;74.57;;
57107;SDS011;42987;52.916;6.542;2022-12-18T00:31:38;161.20;;;74.90;;
57107;SDS011;42987;52.916;6.542;2022-12-18T00:34:04;166.70;;;77.47;;
57107;SDS011;42987;52.916;6.542;2022-12-18T00:36:31;159.30;;;74.87;;
57107;SDS011;42987;52.916;6.542;2022-12-18T00:38:59;147.53;;;72.17;;
57107;SDS011;42987;52.916;6.542;2022-12-18T00:41:29;153.43;;;72.50;;
57107;SDS011;42987;52.916;6.542;2022-12-18T00:44:14;149.50;;;71.57;;
57107;SDS011;42987;52.916;6.542;2022-12-18T00:46:42;147.87;;;72.20;;
57107;SDS011;42987;52.916;6.542;2022-12-18T00:49:12;158.23;;;74.37;;
57107;SDS011;42987;52.916;6.542;2022-12-18T00:51:38;148.57;;;75.28;;
57107;SDS011;42987;52.916;6.542;2022-12-18T00:54:04;147.83;;;71.17;;
57107;SDS011;42987;52.916;6.542;2022-12-18T00:56:30;151.37;;;71.77;;
57107;SDS011;42987;52.916;6.542;2022-12-18T00:58:56;169.97;;;75.17;;
57107;SDS011;42987;52.916;6.542;2022-12-18T01:01:22;156.23;;;72.43;;
57107;SDS011;42987;52.916;6.542;2022-12-18T01:03:48;147.73;;;70.97;;
57107;SDS011;42987;52.916;6.542;2022-12-18T01:06:15;164.67;;;75.97;;
57107;SDS011;42987;52.916;6.542;2022-12-18T01:08:41;145.50;;;71.93;;
57107;SDS011;42987;52.916;6.542;2022-12-18T01:11:08;157.73;;;74.73;;
57107;SDS011;42987;52.916;6.542;2022-12-18T01:13:41;145.73;;;72.30;;
57107;SDS011;42987;52.916;6.542;2022-12-18T01:16:07;147.07;;;73.17;;
57107;SDS011;42987;52.916;6.542;2022-12-18T01:18:34;145.67;;;70.93;;
57107;SDS011;42987;52.916;6.542;2022-12-18T01:21:00;165.03;;;77.70;;
57107;SDS011;42987;52.916;6.542;2022-12-18T01:23:30;163.85;;;77.60;;
57107;SDS011;42987;52.916;6.542;2022-12-18T01:25:56;165.33;;;75.67;;
57107;SDS011;42987;52.916;6.542;2022-12-18T01:28:21;161.20;;;75.97;;
57107;SDS011;42987;52.916;6.542;2022-12-18T01:30:47;170.00;;;77.43;;
57107;SDS011;42987;52.916;6.542;2022-12-18T01:33:13;158.50;;;77.00;;
57107;SDS011;42987;52.916;6.542;2022-12-18T01:35:42;164.00;;;77.60;;
57107;SDS011;42987;52.916;6.542;2022-12-18T01:38:11;174.63;;;81.47;;
57107;SDS011;42987;52.916;6.542;2022-12-18T01:40:36;188.40;;;85.47;;
57107;SDS011;42987;52.916;6.542;2022-12-18T01:43:02;167.60;;;78.70;;
57107;SDS011;42987;52.916;6.542;2022-12-18T01:45:29;162.40;;;78.20;;
57107;SDS011;42987;52.916;6.542;2022-12-18T01:48:00;145.23;;;75.57;;
57107;SDS011;42987;52.916;6.542;2022-12-18T01:50:32;158.87;;;79.20;;
57107;SDS011;42987;52.916;6.542;2022-12-18T01:53:15;173.87;;;84.00;;
57107;SDS011;42987;52.916;6.542;2022-12-18T01:55:48;169.00;;;80.70;;
57107;SDS011;42987;52.916;6.542;2022-12-18T01:58:17;161.07;;;78.57;;
57107;SDS011;42987;52.916;6.542;2022-12-18T02:00:44;151.67;;;80.13;;
57107;SDS011;42987;52.916;6.542;2022-12-18T02:03:10;152.53;;;79.80;;
57107;SDS011;42987;52.916;6.542;2022-12-18T02:05:46;162.23;;;80.20;;
57107;SDS011;42987;52.916;6.542;2022-12-18T02:11:22;148.57;;;80.30;;
57107;SDS011;42987;52.916;6.542;2022-12-18T02:19:16;140.20;;;75.17;;
57107;SDS011;42987;52.916;6.542;2022-12-18T02:28:00;133.17;;;74.30;;
57107;SDS011;42987;52.916;6.542;2022-12-18T02:30:29;135.07;;;73.57;;
57107;SDS011;42987;52.916;6.542;2022-12-18T02:32:59;130.98;;;76.28;;
57107;SDS011;42987;52.916;6.542;2022-12-18T02:35:29;134.00;;;73.03;;
57107;SDS011;42987;52.916;6.542;2022-12-18T02:37:56;135.70;;;74.87;;
57107;SDS011;42987;52.916;6.542;2022-12-18T02:40:26;124.67;;;69.90;;
57107;SDS011;42987;52.916;6.542;2022-12-18T02:43:02;133.70;;;72.07;;
57107;SDS011;42987;52.916;6.542;2022-12-18T02:45:32;130.90;;;72.23;;
57107;SDS011;42987;52.916;6.542;2022-12-18T02:47:57;129.00;;;71.83;;
57107;SDS011;42987;52.916;6.542;2022-12-18T02:50:34;136.83;;;72.27;;
57107;SDS011;42987;52.916;6.542;2022-12-18T02:53:21;133.13;;;71.83;;
57107;SDS011;42987;52.916;6.542;2022-12-18T02:56:15;140.88;;;76.78;;
57107;SDS011;42987;52.916;6.542;2022-12-18T03:04:09;134.43;;;73.83;;
57107;SDS011;42987;52.916;6.542;2022-12-18T03:07:01;129.87;;;69.67;;
57107;SDS011;42987;52.916;6.542;2022-12-18T03:09:31;132.05;;;70.95;;
57107;SDS011;42987;52.916;6.542;2022-12-18T03:12:20;134.23;;;71.05;;
57107;SDS011;42987;52.916;6.542;2022-12-18T03:14:57;132.70;;;69.97;;
57107;SDS011;42987;52.916;6.542;2022-12-18T03:17:25;130.77;;;70.80;;
57107;SDS011;42987;52.916;6.542;2022-12-18T03:19:58;137.87;;;73.10;;
57107;SDS011;42987;52.916;6.542;2022-12-18T03:22:33;131.47;;;72.03;;
57107;SDS011;42987;52.916;6.542;2022-12-18T03:25:01;125.23;;;67.13;;
57107;SDS011;42987;52.916;6.542;2022-12-18T03:27:29;133.17;;;69.77;;
57107;SDS011;42987;52.916;6.542;2022-12-18T03:30:01;129.87;;;69.53;;
57107;SDS011;42987;52.916;6.542;2022-12-18T03:32:38;123.47;;;66.90;;
57107;SDS011;42987;52.916;6.542;2022-12-18T03:35:30;127.67;;;70.60;;
57107;SDS011;42987;52.916;6.542;2022-12-18T03:38:00;131.93;;;69.40;;
57107;SDS011;42987;52.916;6.542;2022-12-18T03:40:31;122.90;;;69.57;;
57107;SDS011;42987;52.916;6.542;2022-12-18T03:43:03;129.23;;;70.33;;
57107;SDS011;42987;52.916;6.542;2022-12-18T03:45:42;123.53;;;67.03;;
57107;SDS011;42987;52.916;6.542;2022-12-18T03:48:25;125.30;;;68.10;;
57107;SDS011;42987;52.916;6.542;2022-12-18T03:51:15;122.33;;;67.77;;
57107;SDS011;42987;52.916;6.542;2022-12-18T03:53:52;128.43;;;68.90;;
57107;SDS011;42987;52.916;6.542;2022-12-18T03:56:30;121.75;;;67.53;;
57107;SDS011;42987;52.916;6.542;2022-12-18T03:59:00;121.93;;;66.67;;
57107;SDS011;42987;52.916;6.542;2022-12-18T04:01:30;117.23;;;65.07;;
57107;SDS011;42987;52.916;6.542;2022-12-18T04:04:02;123.83;;;69.10;;
57107;SDS011;42987;52.916;6.542;2022-12-18T04:06:30;120.80;;;65.33;;
57107;SDS011;42987;52.916;6.542;2022-12-18T04:09:00;117.23;;;64.67;;
57107;SDS011;42987;52.916;6.542;2022-12-18T04:11:26;117.97;;;64.93;;
57107;SDS011;42987;52.916;6.542;2022-12-18T04:13:55;106.07;;;62.10;;
57107;SDS011;42987;52.916;6.542;2022-12-18T04:16:22;117.18;;;66.25;;
57107;SDS011;42987;52.916;6.542;2022-12-18T04:18:49;117.93;;;63.43;;
57107;SDS011;42987;52.916;6.542;2022-12-18T04:21:15;111.17;;;64.17;;
57107;SDS011;42987;52.916;6.542;2022-12-18T04:23:43;100.43;;;60.90;;
57107;SDS011;42987;52.916;6.542;2022-12-18T04:26:08;110.73;;;62.10;;
57107;SDS011;42987;52.916;6.542;2022-12-18T04:28:34;111.27;;;62.23;;
57107;SDS011;42987;52.916;6.542;2022-12-18T04:31:00;105.90;;;61.47;;
57107;SDS011;42987;52.916;6.542;2022-12-18T04:33:25;99.93;;;57.23;;
57107;SDS011;42987;52.916;6.542;2022-12-18T04:35:51;99.63;;;58.87;;
57107;SDS011;42987;52.916;6.542;2022-12-18T04:38:20;93.87;;;57.70;;
57107;SDS011;42987;52.916;6.542;2022-12-18T04:40:46;95.87;;;57.80;;
57107;SDS011;42987;52.916;6.542;2022-12-18T04:43:11;98.77;;;59.13;;
57107;SDS011;42987;52.916;6.542;2022-12-18T04:45:37;95.23;;;56.83;;
57107;SDS011;42987;52.916;6.542;2022-12-18T04:48:03;95.77;;;58.87;;
57107;SDS011;42987;52.916;6.542;2022-12-18T04:50:29;93.17;;;57.50;;
57107;SDS011;42987;52.916;6.542;2022-12-18T04:52:56;87.83;;;55.93;;
57107;SDS011;42987;52.916;6.542;2022-12-18T04:55:22;92.53;;;56.23;;
57107;SDS011;42987;52.916;6.542;2022-12-18T04:57:48;81.40;;;52.70;;
57107;SDS011;42987;52.916;6.542;2022-12-18T05:00:14;81.40;;;52.17;;
57107;SDS011;42987;52.916;6.542;2022-12-18T05:02:40;82.27;;;52.70;;
57107;SDS011;42987;52.916;6.542;2022-12-18T05:05:06;83.33;;;51.67;;
57107;SDS011;42987;52.916;6.542;2022-12-18T05:07:32;81.33;;;51.50;;
57107;SDS011;42987;52.916;6.542;2022-12-18T05:09:58;76.00;;;49.73;;
57107;SDS011;42987;52.916;6.542;2022-12-18T05:12:24;76.13;;;49.50;;
57107;SDS011;42987;52.916;6.542;2022-12-18T05:14:50;81.13;;;49.83;;
57107;SDS011;42987;52.916;6.542;2022-12-18T05:17:15;72.03;;;48.93;;
57107;SDS011;42987;52.916;6.542;2022-12-18T05:19:41;82.77;;;51.70;;
57107;SDS011;42987;52.916;6.542;2022-12-18T05:22:07;72.13;;;48.27;;
57107;SDS011;42987;52.916;6.542;2022-12-18T05:24:33;69.53;;;46.87;;
57107;SDS011;42987;52.916;6.542;2022-12-18T05:26:59;72.47;;;47.57;;
57107;SDS011;42987;52.916;6.542;2022-12-18T05:29:25;72.07;;;48.10;;
57107;SDS011;42987;52.916;6.542;2022-12-18T05:31:51;72.93;;;48.87;;
57107;SDS011;42987;52.916;6.542;2022-12-18T05:34:17;73.07;;;48.20;;
57107;SDS011;42987;52.916;6.542;2022-12-18T05:36:42;69.03;;;45.83;;
57107;SDS011;42987;52.916;6.542;2022-12-18T05:39:08;65.80;;;44.33;;
57107;SDS011;42987;52.916;6.542;2022-12-18T05:41:34;66.40;;;44.67;;
57107;SDS011;42987;52.916;6.542;2022-12-18T05:44:00;67.60;;;46.60;;
57107;SDS011;42987;52.916;6.542;2022-12-18T05:46:26;69.00;;;48.03;;
57107;SDS011;42987;52.916;6.542;2022-12-18T05:48:51;68.97;;;47.37;;
57107;SDS011;42987;52.916;6.542;2022-12-18T05:51:18;67.50;;;46.97;;
57107;SDS011;42987;52.916;6.542;2022-12-18T05:53:45;66.03;;;45.13;;
57107;SDS011;42987;52.916;6.542;2022-12-18T05:56:13;59.80;;;43.07;;
57107;SDS011;42987;52.916;6.542;2022-12-18T05:58:40;62.93;;;44.63;;
57107;SDS011;42987;52.916;6.542;2022-12-18T06:01:20;62.43;;;43.73;;
57107;SDS011;42987;52.916;6.542;2022-12-18T06:03:48;61.77;;;42.83;;
57107;SDS011;42987;52.916;6.542;2022-12-18T06:06:23;60.87;;;43.90;;
57107;SDS011;42987;52.916;6.542;2022-12-18T06:08:52;58.07;;;43.63;;
57107;SDS011;42987;52.916;6.542;2022-12-18T06:11:20;63.70;;;43.67;;
57107;SDS011;42987;52.916;6.542;2022-12-18T06:13:51;63.23;;;43.37;;
57107;SDS011;42987;52.916;6.542;2022-12-18T06:16:21;63.83;;;43.90;;
57107;SDS011;42987;52.916;6.542;2022-12-18T06:18:47;60.03;;;42.17;;
57107;SDS011;42987;52.916;6.542;2022-12-18T06:21:12;61.30;;;43.37;;
57107;SDS011;42987;52.916;6.542;2022-12-18T06:23:38;56.07;;;39.90;;
57107;SDS011;42987;52.916;6.542;2022-12-18T06:26:04;53.60;;;40.40;;
57107;SDS011;42987;52.916;6.542;2022-12-18T06:28:36;54.57;;;39.37;;
57107;SDS011;42987;52.916;6.542;2022-12-18T06:31:03;56.27;;;41.03;;
57107;SDS011;42987;52.916;6.542;2022-12-18T06:33:29;58.37;;;42.40;;
57107;SDS011;42987;52.916;6.542;2022-12-18T06:36:09;55.80;;;39.87;;
57107;SDS011;42987;52.916;6.542;2022-12-18T06:38:39;55.63;;;39.93;;
57107;SDS011;42987;52.916;6.542;2022-12-18T06:41:10;57.53;;;39.15;;
57107;SDS011;42987;52.916;6.542;2022-12-18T06:43:41;56.90;;;40.40;;
57107;SDS011;42987;52.916;6.542;2022-12-18T06:46:07;53.83;;;39.70;;
57107;SDS011;42987;52.916;6.542;2022-12-18T06:48:33;54.10;;;39.10;;
57107;SDS011;42987;52.916;6.542;2022-12-18T06:50:59;50.40;;;37.57;;
57107;SDS011;42987;52.916;6.542;2022-12-18T06:53:25;51.27;;;38.73;;
57107;SDS011;42987;52.916;6.542;2022-12-18T06:55:51;53.13;;;39.33;;
57107;SDS011;42987;52.916;6.542;2022-12-18T06:58:17;53.07;;;39.07;;
57107;SDS011;42987;52.916;6.542;2022-12-18T07:00:43;53.07;;;38.33;;
57107;SDS011;42987;52.916;6.542;2022-12-18T07:03:09;53.53;;;40.10;;
57107;SDS011;42987;52.916;6.542;2022-12-18T07:05:39;52.90;;;38.67;;
57107;SDS011;42987;52.916;6.542;2022-12-18T07:08:05;54.60;;;41.28;;
57107;SDS011;42987;52.916;6.542;2022-12-18T07:10:31;63.27;;;42.53;;
57107;SDS011;42987;52.916;6.542;2022-12-18T07:12:57;58.33;;;42.00;;
57107;SDS011;42987;52.916;6.542;2022-12-18T07:15:23;58.77;;;41.47;;
57107;SDS011;42987;52.916;6.542;2022-12-18T07:17:49;44.17;;;21.20;;
57107;SDS011;42987;52.916;6.542;2022-12-18T07:20:15;59.00;;;40.53;;
57107;SDS011;42987;52.916;6.542;2022-12-18T07:22:40;58.50;;;41.03;;
57107;SDS011;42987;52.916;6.542;2022-12-18T07:25:06;58.50;;;41.27;;
57107;SDS011;42987;52.916;6.542;2022-12-18T07:27:33;56.27;;;39.87;;
57107;SDS011;42987;52.916;6.542;2022-12-18T07:29:59;54.80;;;40.07;;
57107;SDS011;42987;52.916;6.542;2022-12-18T07:32:25;56.13;;;41.13;;
57107;SDS011;42987;52.916;6.542;2022-12-18T07:34:50;54.00;;;39.57;;
57107;SDS011;42987;52.916;6.542;2022-12-18T07:37:16;53.13;;;41.17;;
57107;SDS011;42987;52.916;6.542;2022-12-18T07:39:42;55.40;;;40.43;;
57107;SDS011;42987;52.916;6.542;2022-12-18T07:42:08;54.10;;;39.30;;
57107;SDS011;42987;52.916;6.542;2022-12-18T07:44:52;54.93;;;39.30;;
57107;SDS011;42987;52.916;6.542;2022-12-18T07:47:18;49.80;;;37.37;;
57107;SDS011;42987;52.916;6.542;2022-12-18T07:49:47;51.47;;;38.03;;
57107;SDS011;42987;52.916;6.542;2022-12-18T07:52:13;50.90;;;37.10;;
57107;SDS011;42987;52.916;6.542;2022-12-18T07:54:39;53.60;;;39.77;;
57107;SDS011;42987;52.916;6.542;2022-12-18T07:57:05;50.03;;;37.93;;
57107;SDS011;42987;52.916;6.542;2022-12-18T07:59:32;50.73;;;37.53;;
57107;SDS011;42987;52.916;6.542;2022-12-18T08:01:57;48.87;;;36.00;;
57107;SDS011;42987;52.916;6.542;2022-12-18T08:04:23;49.57;;;36.30;;
57107;SDS011;42987;52.916;6.542;2022-12-18T08:06:50;51.83;;;38.37;;
57107;SDS011;42987;52.916;6.542;2022-12-18T08:09:16;48.43;;;36.03;;
57107;SDS011;42987;52.916;6.542;2022-12-18T08:11:41;47.10;;;36.70;;
57107;SDS011;42987;52.916;6.542;2022-12-18T08:14:08;50.70;;;38.27;;
57107;SDS011;42987;52.916;6.542;2022-12-18T08:16:33;48.33;;;35.93;;
57107;SDS011;42987;52.916;6.542;2022-12-18T08:18:59;47.70;;;37.33;;
57107;SDS011;42987;52.916;6.542;2022-12-18T08:21:27;45.80;;;36.73;;
57107;SDS011;42987;52.916;6.542;2022-12-18T08:23:54;48.37;;;36.97;;
57107;SDS011;42987;52.916;6.542;2022-12-18T08:26:22;48.57;;;35.27;;
57107;SDS011;42987;52.916;6.542;2022-12-18T08:28:50;47.00;;;36.93;;
57107;SDS011;42987;52.916;6.542;2022-12-18T08:31:17;46.43;;;34.97;;
57107;SDS011;42987;52.916;6.542;2022-12-18T08:33:43;45.30;;;34.77;;
57107;SDS011;42987;52.916;6.542;2022-12-18T08:36:09;44.13;;;34.47;;
57107;SDS011;42987;52.916;6.542;2022-12-18T08:38:35;42.90;;;33.23;;
57107;SDS011;42987;52.916;6.542;2022-12-18T08:41:08;40.00;;;33.23;;
57107;SDS011;42987;52.916;6.542;2022-12-18T08:43:35;43.00;;;33.57;;
57107;SDS011;42987;52.916;6.542;2022-12-18T08:46:20;40.83;;;32.90;;
57107;SDS011;42987;52.916;6.542;2022-12-18T08:48:47;39.63;;;32.07;;
57107;SDS011;42987;52.916;6.542;2022-12-18T08:51:15;39.77;;;31.77;;
57107;SDS011;42987;52.916;6.542;2022-12-18T08:53:42;41.57;;;32.27;;
57107;SDS011;42987;52.916;6.542;2022-12-18T08:56:09;36.00;;;30.87;;
57107;SDS011;42987;52.916;6.542;2022-12-18T08:58:35;39.37;;;31.10;;
57107;SDS011;42987;52.916;6.542;2022-12-18T09:01:05;37.33;;;30.80;;
57107;SDS011;42987;52.916;6.542;2022-12-18T09:03:36;36.83;;;30.20;;
57107;SDS011;42987;52.916;6.542;2022-12-18T09:06:02;36.83;;;31.53;;
57107;SDS011;42987;52.916;6.542;2022-12-18T09:08:28;38.13;;;31.33;;
57107;SDS011;42987;52.916;6.542;2022-12-18T09:10:55;35.83;;;30.93;;
57107;SDS011;42987;52.916;6.542;2022-12-18T09:13:21;38.57;;;29.97;;
57107;SDS011;42987;52.916;6.542;2022-12-18T09:15:48;33.63;;;28.57;;
57107;SDS011;42987;52.916;6.542;2022-12-18T09:18:21;34.17;;;28.27;;
57107;SDS011;42987;52.916;6.542;2022-12-18T09:20:51;34.80;;;28.13;;
57107;SDS011;42987;52.916;6.542;2022-12-18T09:23:17;32.50;;;27.13;;
57107;SDS011;42987;52.916;6.542;2022-12-18T09:25:43;31.20;;;26.50;;
57107;SDS011;42987;52.916;6.542;2022-12-18T09:28:11;29.60;;;26.13;;
57107;SDS011;42987;52.916;6.542;2022-12-18T09:30:39;31.93;;;26.50;;
57107;SDS011;42987;52.916;6.542;2022-12-18T09:33:10;29.93;;;25.27;;
57107;SDS011;42987;52.916;6.542;2022-12-18T09:35:36;32.00;;;26.13;;
57107;SDS011;42987;52.916;6.542;2022-12-18T09:38:03;28.07;;;23.60;;
57107;SDS011;42987;52.916;6.542;2022-12-18T09:40:32;29.50;;;23.73;;
57107;SDS011;42987;52.916;6.542;2022-12-18T09:43:06;29.50;;;24.70;;
57107;SDS011;42987;52.916;6.542;2022-12-18T09:45:41;27.63;;;23.30;;
57107;SDS011;42987;52.916;6.542;2022-12-18T09:48:18;27.47;;;23.10;;
57107;SDS011;42987;52.916;6.542;2022-12-18T09:50:55;28.07;;;24.00;;
57107;SDS011;42987;52.916;6.542;2022-12-18T09:53:26;28.77;;;23.93;;
57107;SDS011;42987;52.916;6.542;2022-12-18T09:55:55;27.30;;;22.90;;
57107;SDS011;42987;52.916;6.542;2022-12-18T09:58:30;24.73;;;21.60;;
57107;SDS011;42987;52.916;6.542;2022-12-18T10:01:10;23.30;;;20.80;;
57107;SDS011;42987;52.916;6.542;2022-12-18T10:03:40;25.03;;;21.13;;
57107;SDS011;42987;52.916;6.542;2022-12-18T10:17:02;21.77;;;18.10;;
57107;SDS011;42987;52.916;6.542;2022-12-18T10:27:39;17.90;;;15.77;;
57107;SDS011;42987;52.916;6.542;2022-12-18T10:30:20;18.77;;;15.40;;
57107;SDS011;42987;52.916;6.542;2022-12-18T10:32:47;17.30;;;15.00;;
57107;SDS011;42987;52.916;6.542;2022-12-18T10:35:18;17.03;;;15.03;;
57107;SDS011;42987;52.916;6.542;2022-12-18T10:38:03;16.17;;;14.47;;
57107;SDS011;42987;52.916;6.542;2022-12-18T10:40:31;16.37;;;14.17;;
57107;SDS011;42987;52.916;6.542;2022-12-18T10:43:11;17.17;;;14.63;;
57107;SDS011;42987;52.916;6.542;2022-12-18T10:45:39;18.07;;;13.90;;
57107;SDS011;42987;52.916;6.542;2022-12-18T10:48:21;16.27;;;14.40;;
57107;SDS011;42987;52.916;6.542;2022-12-18T10:50:49;16.53;;;13.20;;
57107;SDS011;42987;52.916;6.542;2022-12-18T10:53:26;15.07;;;12.03;;
57107;SDS011;42987;52.916;6.542;2022-12-18T10:55:54;14.40;;;12.10;;
57107;SDS011;42987;52.916;6.542;2022-12-18T10:58:36;12.60;;;11.27;;
57107;SDS011;42987;52.916;6.542;2022-12-18T11:01:05;15.67;;;11.60;;
57107;SDS011;42987;52.916;6.542;2022-12-18T11:03:34;14.87;;;11.40;;
57107;SDS011;42987;52.916;6.542;2022-12-18T11:06:07;13.70;;;10.50;;
57107;SDS011;42987;52.916;6.542;2022-12-18T11:08:41;11.53;;;10.27;;
57107;SDS011;42987;52.916;6.542;2022-12-18T11:11:29;12.70;;;10.07;;
57107;SDS011;42987;52.916;6.542;2022-12-18T11:13:57;11.53;;;9.93;;
57107;SDS011;42987;52.916;6.542;2022-12-18T11:16:24;12.48;;;10.65;;
57107;SDS011;42987;52.916;6.542;2022-12-18T11:18:51;10.43;;;9.30;;
57107;SDS011;42987;52.916;6.542;2022-12-18T11:21:17;11.93;;;10.30;;
57107;SDS011;42987;52.916;6.542;2022-12-18T11:23:52;11.73;;;9.70;;
57107;SDS011;42987;52.916;6.542;2022-12-18T11:26:19;10.43;;;8.77;;
57107;SDS011;42987;52.916;6.542;2022-12-18T11:28:47;11.83;;;9.83;;
57107;SDS011;42987;52.916;6.542;2022-12-18T11:33:57;11.20;;;8.67;;
57107;SDS011;42987;52.916;6.542;2022-12-18T11:36:32;9.93;;;8.60;;
57107;SDS011;42987;52.916;6.542;2022-12-18T11:39:07;10.87;;;9.27;;
57107;SDS011;42987;52.916;6.542;2022-12-18T11:41:50;10.60;;;8.87;;
57107;SDS011;42987;52.916;6.542;2022-12-18T11:49:37;11.07;;;8.70;;
57107;SDS011;42987;52.916;6.542;2022-12-18T11:54:40;11.47;;;8.93;;
57107;SDS011;42987;52.916;6.542;2022-12-18T11:57:23;10.17;;;8.53;;
57107;SDS011;42987;52.916;6.542;2022-12-18T11:59:56;9.80;;;7.67;;
57107;SDS011;42987;52.916;6.542;2022-12-18T12:05:27;10.20;;;8.17;;
57107;SDS011;42987;52.916;6.542;2022-12-18T12:16:41;10.63;;;8.20;;
57107;SDS011;42987;52.916;6.542;2022-12-18T12:25:03;10.00;;;8.17;;
57107;SDS011;42987;52.916;6.542;2022-12-18T12:30:33;10.30;;;7.73;;
57107;SDS011;42987;52.916;6.542;2022-12-18T12:33:37;11.30;;;9.10;;
57107;SDS011;42987;52.916;6.542;2022-12-18T12:36:29;10.20;;;7.63;;
57107;SDS011;42987;52.916;6.542;2022-12-18T12:39:12;12.97;;;8.77;;
57107;SDS011;42987;52.916;6.542;2022-12-18T12:41:42;11.27;;;8.37;;
57107;SDS011;42987;52.916;6.542;2022-12-18T12:44:40;10.77;;;8.37;;
57107;SDS011;42987;52.916;6.542;2022-12-18T12:47:14;11.63;;;8.13;;
57107;SDS011;42987;52.916;6.542;2022-12-18T12:49:43;10.57;;;8.40;;
57107;SDS011;42987;52.916;6.542;2022-12-18T12:52:14;11.60;;;8.37;;
57107;SDS011;42987;52.916;6.542;2022-12-18T12:54:53;10.17;;;7.90;;
57107;SDS011;42987;52.916;6.542;2022-12-18T13:08:09;9.37;;;7.73;;
57107;SDS011;42987;52.916;6.542;2022-12-18T13:10:46;10.67;;;8.60;;
57107;SDS011;42987;52.916;6.542;2022-12-18T13:13:12;11.17;;;8.10;;
57107;SDS011;42987;52.916;6.542;2022-12-18T13:18:19;9.60;;;8.07;;
57107;SDS011;42987;52.916;6.542;2022-12-18T13:21:01;11.30;;;9.07;;
57107;SDS011;42987;52.916;6.542;2022-12-18T13:23:34;12.20;;;8.43;;
57107;SDS011;42987;52.916;6.542;2022-12-18T13:31:02;10.93;;;8.47;;
57107;SDS011;42987;52.916;6.542;2022-12-18T13:39:11;10.20;;;8.23;;
57107;SDS011;42987;52.916;6.542;2022-12-18T13:41:43;9.97;;;8.20;;
57107;SDS011;42987;52.916;6.542;2022-12-18T13:46:49;11.27;;;8.70;;
57107;SDS011;42987;52.916;6.542;2022-12-18T13:52:00;10.97;;;9.23;;
57107;SDS011;42987;52.916;6.542;2022-12-18T13:57:00;11.67;;;9.97;;
57107;SDS011;42987;52.916;6.542;2022-12-18T13:59:34;10.83;;;9.20;;
57107;SDS011;42987;52.916;6.542;2022-12-18T14:02:07;13.43;;;10.13;;
57107;SDS011;42987;52.916;6.542;2022-12-18T14:04:45;11.40;;;8.87;;
57107;SDS011;42987;52.916;6.542;2022-12-18T14:07:15;15.00;;;9.87;;
57107;SDS011;42987;52.916;6.542;2022-12-18T14:09:45;51.30;;;11.30;;
57107;SDS011;42987;52.916;6.542;2022-12-18T14:12:18;12.60;;;10.40;;
57107;SDS011;42987;52.916;6.542;2022-12-18T14:17:49;11.17;;;9.83;;
57107;SDS011;42987;52.916;6.542;2022-12-18T14:20:27;11.97;;;10.00;;
57107;SDS011;42987;52.916;6.542;2022-12-18T14:22:56;12.37;;;10.30;;
57107;SDS011;42987;52.916;6.542;2022-12-18T14:25:24;13.33;;;10.60;;
57107;SDS011;42987;52.916;6.542;2022-12-18T14:27:52;12.27;;;10.57;;
57107;SDS011;42987;52.916;6.542;2022-12-18T14:35:36;15.33;;;11.23;;
57107;SDS011;42987;52.916;6.542;2022-12-18T14:38:11;13.70;;;11.37;;
57107;SDS011;42987;52.916;6.542;2022-12-18T14:40:51;13.47;;;10.73;;
57107;SDS011;42987;52.916;6.542;2022-12-18T14:43:22;12.43;;;10.50;;
57107;SDS011;42987;52.916;6.542;2022-12-18T14:45:48;16.00;;;11.43;;
57107;SDS011;42987;52.916;6.542;2022-12-18T14:48:16;13.13;;;11.07;;
57107;SDS011;42987;52.916;6.542;2022-12-18T14:50:54;14.57;;;10.93;;
57107;SDS011;42987;52.916;6.542;2022-12-18T14:58:46;14.35;;;11.65;;
57107;SDS011;42987;52.916;6.542;2022-12-18T15:01:20;13.10;;;11.60;;
57107;SDS011;42987;52.916;6.542;2022-12-18T15:03:49;13.73;;;11.40;;
57107;SDS011;42987;52.916;6.542;2022-12-18T15:06:33;13.90;;;11.00;;
57107;SDS011;42987;52.916;6.542;2022-12-18T15:09:02;12.87;;;11.47;;
57107;SDS011;42987;52.916;6.542;2022-12-18T15:17:00;14.50;;;12.10;;
57107;SDS011;42987;52.916;6.542;2022-12-18T15:19:38;13.60;;;11.43;;
57107;SDS011;42987;52.916;6.542;2022-12-18T15:22:39;14.77;;;12.33;;
57107;SDS011;42987;52.916;6.542;2022-12-18T15:25:01;14.40;;;12.07;;
57107;SDS011;42987;52.916;6.542;2022-12-18T15:27:45;15.30;;;12.80;;
57107;SDS011;42987;52.916;6.542;2022-12-18T15:30:16;14.60;;;12.40;;
57107;SDS011;42987;52.916;6.542;2022-12-18T15:32:44;14.77;;;12.63;;
57107;SDS011;42987;52.916;6.542;2022-12-18T15:37:36;14.10;;;12.50;;
57107;SDS011;42987;52.916;6.542;2022-12-18T15:40:04;15.33;;;12.80;;
57107;SDS011;42987;52.916;6.542;2022-12-18T15:42:30;14.77;;;13.23;;
57107;SDS011;42987;52.916;6.542;2022-12-18T15:45:15;16.50;;;13.53;;
57107;SDS011;42987;52.916;6.542;2022-12-18T15:47:41;16.40;;;13.60;;
57107;SDS011;42987;52.916;6.542;2022-12-18T15:50:10;15.00;;;13.20;;
57107;SDS011;42987;52.916;6.542;2022-12-18T15:52:39;14.23;;;12.63;;
57107;SDS011;42987;52.916;6.542;2022-12-18T15:55:13;16.73;;;13.90;;
57107;SDS011;42987;52.916;6.542;2022-12-18T15:57:59;18.47;;;14.60;;
57107;SDS011;42987;52.916;6.542;2022-12-18T16:00:25;14.77;;;13.13;;
57107;SDS011;42987;52.916;6.542;2022-12-18T16:02:53;15.47;;;13.50;;
57107;SDS011;42987;52.916;6.542;2022-12-18T16:05:20;15.50;;;13.17;;
57107;SDS011;42987;52.916;6.542;2022-12-18T16:07:49;16.25;;;13.93;;
57107;SDS011;42987;52.916;6.542;2022-12-18T16:10:15;15.43;;;13.23;;
57107;SDS011;42987;52.916;6.542;2022-12-18T16:12:41;14.73;;;13.20;;
57107;SDS011;42987;52.916;6.542;2022-12-18T16:15:08;15.23;;;13.27;;
57107;SDS011;42987;52.916;6.542;2022-12-18T16:17:38;15.43;;;13.07;;
57107;SDS011;42987;52.916;6.542;2022-12-18T16:20:05;14.97;;;13.37;;
57107;SDS011;42987;52.916;6.542;2022-12-18T16:22:37;15.20;;;13.60;;
57107;SDS011;42987;52.916;6.542;2022-12-18T16:25:03;18.07;;;15.00;;
57107;SDS011;42987;52.916;6.542;2022-12-18T16:27:30;17.30;;;14.30;;
57107;SDS011;42987;52.916;6.542;2022-12-18T16:29:56;16.60;;;14.67;;
57107;SDS011;42987;52.916;6.542;2022-12-18T16:32:22;15.33;;;13.43;;
57107;SDS011;42987;52.916;6.542;2022-12-18T16:34:48;15.60;;;13.77;;
57107;SDS011;42987;52.916;6.542;2022-12-18T16:37:15;16.23;;;14.53;;
57107;SDS011;42987;52.916;6.542;2022-12-18T16:39:41;16.47;;;14.73;;